Rossosh', Russia
Current Conditions -  °F | °C
As of 5:30 PM on Friday 24 Oct 2014 (Local Time) from UUOO Reporting Station
Clear Clear  
Wind Chill: 21°   Ceiling: Unl
Heat Index: 28°   Visibility: 6mi
Dew Point: 14°   Wind: 7mph
Humidity: 55%   Direction: 350°N
Pressure: 30.48"   Gusts: NA
Location:  50.15°N, 39.28°E
Report Text: UUOO 241430Z 35003MPS CAVOK M02/M10 Q1032 NOSIG RMK 30090070
Loading
Personal Weather Stations






























Interactive Weather Map
Tropical Storm Tracking
New forecast layout! Learn more

10-Day Weather Forecast

Advertisements
Track Severe Weather on mobile